Airfield :
LOGIN :

Register | Disclaimer

   EN    FR    IT 

 










Legend :    VFR   Marginal VFR   IFR   Intensive IFR   Very Intensive IFR
Visi :
Ceiling :
>= 8 km
>= 3000ft
5 to 8 km
1000 to 3000 ft
1500m to 5 km
500 to 1000 ft
800 to 1500m
200 to 500 ft
< 800m
< 200 ft
Symbols :   Thunderstorms  Fog  Heavy snow  Heavy precipitations  Wind > 20 kt
SIGMETs :     Misc.  Thunderstorms  Icing  Turbulence  Mountain Waves  Volcanic Ashes






- Airport Elevation : 42 ft
- IATA code : CAL


EGEC - Campbeltown

CURRENT METAR :
  • 211220Z 25014KT 9999 BKN007 BKN012 13/12 Q0989

EXPIRED METARs :
  • 211150Z 24011KT 9999 FEW007 BKN009 BKN027 13/12 Q0989
  • 211120Z 24010KT 210V270 9999 FEW007 BKN015 BKN047 13/12 Q0989
  • 211050Z 24008KT 9999 SCT007 SCT018 BKN047 14/13 Q0989
  • 211020Z 21004KT 9999 FEW006 BKN009 13/12 Q0989
  • 210950Z 22006KT 6000 -SHRA FEW006 BKN010 13/12 Q0988

TAF TAF EGEC
Valid from the 21 at 12:00 until the 21 at 17:00 UTC


211100Z 2112/2117 25009KT 9999 SCT015
TEMPO 2112/2117 6000 -RADZ BKN008
PROB30
TEMPO 2112/2117 3000 RADZ BR BKN004



MET'MAP, your aeronautical weather chart ! - Copyright ORBIFLY December 2007 - Disclaimer

ORBIFLY MET'MAP TEAM :

Programming & Development : Alexandra Zaïnal
Concept & original design : Baudouin d'Aumeries
Assistance for programming : Marc-Olivier Méhu
Technical & hardware support : Manuel Goepfert

Contact : metmap@orbifly.com




SOURCES & CREDITS :

   NOAA